createdAt,value
2023-02-26T00:01:21.622Z,100.00
2023-02-26T00:03:52.952Z,100.00
2023-02-26T00:06:20.166Z,100.00
2023-02-26T00:08:46.793Z,100.00
2023-02-26T00:11:13.821Z,100.00
2023-02-26T00:13:42.497Z,100.00
2023-02-26T00:16:32.360Z,100.00
2023-02-26T00:19:01.805Z,100.00
2023-02-26T00:21:29.840Z,100.00
2023-02-26T00:23:56.926Z,100.00
2023-02-26T00:26:26.783Z,100.00
2023-02-26T00:28:54.139Z,100.00
2023-02-26T00:31:24.730Z,100.00
2023-02-26T00:33:53.487Z,100.00
2023-02-26T00:36:44.874Z,100.00
2023-02-26T00:39:41.209Z,100.00
2023-02-26T00:42:08.382Z,100.00
2023-02-26T00:44:35.290Z,100.00
2023-02-26T00:47:20.816Z,100.00
2023-02-26T00:50:06.056Z,100.00
2023-02-26T00:52:54.091Z,100.00
2023-02-26T00:55:20.713Z,100.00
2023-02-26T00:57:47.329Z,100.00
2023-02-26T01:00:14.855Z,100.00
2023-02-26T01:02:42.000Z,100.00
2023-02-26T01:05:10.207Z,99.13
2023-02-26T01:08:10.158Z,97.15
2023-02-26T01:10:37.233Z,97.41
2023-02-26T01:13:04.162Z,98.57
2023-02-26T01:15:31.192Z,99.50
2023-02-26T01:18:14.392Z,97.52
2023-02-26T01:20:46.660Z,99.46
2023-02-26T01:23:16.964Z,96.90
2023-02-26T01:26:07.049Z,97.51
2023-02-26T01:28:34.094Z,100.00
2023-02-26T01:31:05.298Z,100.00
2023-02-26T01:33:34.446Z,100.00
2023-02-26T01:36:04.148Z,100.00
2023-02-26T01:39:10.547Z,100.00
2023-02-26T01:41:46.648Z,98.83
2023-02-26T01:44:16.221Z,97.25
2023-02-26T01:47:10.962Z,98.64
2023-02-26T01:49:38.845Z,100.00
2023-02-26T01:52:07.699Z,100.00
2023-02-26T01:54:38.956Z,99.71
2023-02-26T01:57:18.572Z,97.60
2023-02-26T01:59:49.314Z,96.00
2023-02-26T02:02:22.243Z,94.44
2023-02-26T02:04:49.997Z,96.91
2023-02-26T02:07:18.761Z,93.39
2023-02-26T02:09:47.701Z,92.48
2023-02-26T02:15:31.633Z,89.08
2023-02-26T02:18:24.193Z,88.15
2023-02-26T02:21:18.748Z,88.21
2023-02-26T02:23:47.971Z,87.71
2023-02-26T02:26:45.874Z,88.88
2023-02-26T02:29:57.457Z,84.71
2023-02-26T02:35:29.489Z,86.18
2023-02-26T02:38:05.069Z,88.18
2023-02-26T02:40:37.536Z,89.97
2023-02-26T02:43:28.052Z,86.66
2023-02-26T02:46:03.966Z,87.85
2023-02-26T02:48:43.727Z,87.02
2023-02-26T02:51:13.776Z,85.03
2023-02-26T02:53:46.214Z,85.79
2023-02-26T02:56:34.785Z,85.50
2023-02-26T02:59:18.317Z,87.90
2023-02-26T03:01:48.142Z,88.07
2023-02-26T03:04:17.035Z,88.65
2023-02-26T03:06:45.400Z,90.76
2023-02-26T03:09:12.540Z,89.43
2023-02-26T03:11:40.269Z,90.07
2023-02-26T03:14:10.259Z,90.32
2023-02-26T03:16:56.633Z,89.71
2023-02-26T03:19:47.981Z,88.87
2023-02-26T03:22:26.578Z,88.82
2023-02-26T03:25:08.468Z,90.73
2023-02-26T03:27:48.021Z,90.54
2023-02-26T03:30:22.989Z,89.57
2023-02-26T03:32:56.995Z,91.48
2023-02-26T03:35:35.850Z,91.27
2023-02-26T03:38:09.040Z,93.21
2023-02-26T03:40:41.510Z,94.36
2023-02-26T03:43:26.818Z,95.82
2023-02-26T03:45:59.490Z,96.49
2023-02-26T03:48:28.834Z,95.65
2023-02-26T03:51:00.752Z,96.11
2023-02-26T03:53:32.317Z,98.25
2023-02-26T03:56:15.717Z,97.96
2023-02-26T03:58:42.424Z,94.93
2023-02-26T04:01:15.610Z,94.70
2023-02-26T04:03:49.758Z,94.28
2023-02-26T04:06:17.090Z,96.82
2023-02-26T04:08:44.123Z,96.65
2023-02-26T04:11:20.085Z,97.84
2023-02-26T04:13:47.716Z,98.37
2023-02-26T04:16:14.769Z,99.90
2023-02-26T04:18:42.602Z,100.00
2023-02-26T04:21:14.292Z,99.26
2023-02-26T04:23:41.392Z,100.00
2023-02-26T04:26:08.245Z,100.00
2023-02-26T04:28:37.715Z,100.00
2023-02-26T04:31:05.812Z,100.00
2023-02-26T04:33:33.358Z,100.00
2023-02-26T04:36:00.852Z,100.00
2023-02-26T04:38:28.033Z,100.00
2023-02-26T04:40:54.770Z,100.00
2023-02-26T04:43:21.404Z,100.00
2023-02-26T04:45:48.923Z,100.00
2023-02-26T04:48:16.437Z,100.00
2023-02-26T04:50:43.279Z,100.00
2023-02-26T04:53:10.249Z,100.00
2023-02-26T04:55:37.291Z,100.00
2023-02-26T04:58:04.076Z,100.00
2023-02-26T05:00:30.673Z,100.00
2023-02-26T05:02:57.313Z,100.00
2023-02-26T05:05:24.142Z,100.00
2023-02-26T05:07:53.862Z,100.00
2023-02-26T05:10:20.412Z,100.00
2023-02-26T05:12:46.979Z,100.00
2023-02-26T05:15:13.689Z,100.00
2023-02-26T05:17:40.267Z,100.00
2023-02-26T05:20:10.184Z,100.00
2023-02-26T05:22:38.237Z,100.00
2023-02-26T05:25:07.635Z,100.00
2023-02-26T05:27:34.759Z,100.00
2023-02-26T05:30:01.371Z,100.00
2023-02-26T05:32:28.137Z,100.00
2023-02-26T05:34:54.657Z,100.00
2023-02-26T05:37:21.276Z,100.00
2023-02-26T05:39:47.818Z,100.00
2023-02-26T05:42:14.394Z,100.00
2023-02-26T05:44:40.945Z,100.00
2023-02-26T05:47:07.661Z,100.00
2023-02-26T05:49:34.248Z,100.00
2023-02-26T05:52:01.051Z,100.00
2023-02-26T05:54:27.792Z,100.00
2023-02-26T05:56:54.372Z,100.00
2023-02-26T05:59:20.874Z,100.00
2023-02-26T06:01:47.958Z,100.00
2023-02-26T06:04:14.564Z,100.00
2023-02-26T06:06:41.127Z,100.00
2023-02-26T06:09:08.943Z,100.00
2023-02-26T06:11:35.627Z,100.00
2023-02-26T06:14:02.434Z,100.00
2023-02-26T06:16:29.360Z,100.00
2023-02-26T06:18:56.139Z,100.00
2023-02-26T06:21:23.241Z,100.00
2023-02-26T06:23:49.911Z,100.00
2023-02-26T06:26:16.625Z,100.00
2023-02-26T06:28:43.209Z,100.00
2023-02-26T06:31:09.747Z,100.00
2023-02-26T06:33:36.445Z,100.00
2023-02-26T06:36:03.121Z,100.00
2023-02-26T06:38:29.728Z,100.00
2023-02-26T06:40:56.373Z,100.00
2023-02-26T06:43:23.310Z,100.00
2023-02-26T06:45:49.952Z,100.00
2023-02-26T06:48:16.863Z,100.00
2023-02-26T06:50:43.463Z,100.00
2023-02-26T06:53:10.040Z,100.00
2023-02-26T06:55:36.967Z,100.00
2023-02-26T06:58:03.522Z,100.00
2023-02-26T07:00:30.164Z,100.00
2023-02-26T07:02:56.995Z,100.00
2023-02-26T07:05:23.659Z,100.00
2023-02-26T07:07:50.243Z,100.00
2023-02-26T07:10:17.169Z,100.00
2023-02-26T07:12:46.694Z,100.00
2023-02-26T07:15:13.380Z,100.00
2023-02-26T07:17:40.339Z,100.00
2023-02-26T07:20:10.462Z,100.00
2023-02-26T07:22:38.089Z,100.00
2023-02-26T07:25:07.186Z,100.00
2023-02-26T07:27:34.627Z,100.00
2023-02-26T07:30:01.796Z,100.00
2023-02-26T07:32:28.681Z,100.00
2023-02-26T07:34:55.190Z,100.00
2023-02-26T07:37:21.852Z,100.00
2023-02-26T07:39:48.470Z,100.00
2023-02-26T07:42:15.172Z,100.00
2023-02-26T07:44:42.019Z,100.00
2023-02-26T07:47:09.707Z,100.00
2023-02-26T07:49:36.592Z,100.00
2023-02-26T07:52:04.050Z,100.00
2023-02-26T07:54:30.598Z,100.00
2023-02-26T07:56:57.132Z,100.00
2023-02-26T07:59:23.626Z,99.15
2023-02-26T08:01:50.483Z,100.00
2023-02-26T08:04:17.129Z,97.01
2023-02-26T08:06:43.657Z,93.63
2023-02-26T08:09:10.292Z,92.51
2023-02-26T08:11:39.800Z,89.53
2023-02-26T08:14:07.623Z,90.26
2023-02-26T08:16:34.247Z,89.85
2023-02-26T08:19:01.098Z,85.81
2023-02-26T08:21:27.673Z,86.71
2023-02-26T08:23:54.295Z,85.65
2023-02-26T08:26:20.856Z,82.65
2023-02-26T08:28:48.362Z,79.28
2023-02-26T08:31:16.398Z,79.70
2023-02-26T08:33:44.052Z,77.58
2023-02-26T08:36:11.641Z,75.45
2023-02-26T08:38:38.547Z,77.11
2023-02-26T08:41:05.365Z,76.55
2023-02-26T08:43:31.969Z,77.68
2023-02-26T08:45:59.549Z,76.41
2023-02-26T08:48:26.313Z,74.81
2023-02-26T08:50:52.904Z,79.00
2023-02-26T08:53:19.453Z,76.45
2023-02-26T08:55:50.806Z,74.59
2023-02-26T08:58:18.528Z,73.03
2023-02-26T09:00:45.494Z,77.20
2023-02-26T09:03:12.314Z,75.89
2023-02-26T09:05:40.890Z,74.50
2023-02-26T09:08:08.147Z,74.47
2023-02-26T09:10:35.137Z,78.16
2023-02-26T09:13:01.850Z,75.14
2023-02-26T09:15:28.429Z,76.86
2023-02-26T09:17:54.969Z,76.56
2023-02-26T09:20:21.545Z,77.67
2023-02-26T09:22:48.142Z,75.53
2023-02-26T09:25:15.368Z,75.00
2023-02-26T09:27:41.994Z,74.88
2023-02-26T09:30:09.663Z,74.55
2023-02-26T09:32:36.362Z,75.45
2023-02-26T09:35:03.776Z,75.76
2023-02-26T09:37:30.290Z,77.76
2023-02-26T09:39:57.065Z,74.71
2023-02-26T09:42:32.936Z,75.33
2023-02-26T09:45:00.249Z,73.96
2023-02-26T09:47:41.904Z,71.76
2023-02-26T09:50:18.920Z,73.20
2023-02-26T09:53:00.838Z,71.25
2023-02-26T09:55:35.532Z,69.69
2023-02-26T09:58:05.308Z,69.24
2023-02-26T10:00:41.826Z,72.08
2023-02-26T10:03:17.486Z,71.54
2023-02-26T10:06:06.976Z,72.43
2023-02-26T10:08:43.634Z,70.18
2023-02-26T10:11:23.193Z,69.78
2023-02-26T10:14:33.213Z,71.53
2023-02-26T10:17:12.148Z,69.59
2023-02-26T10:19:43.214Z,70.07
2023-02-26T10:22:17.796Z,71.22
2023-02-26T10:24:54.180Z,69.26
2023-02-26T10:27:31.441Z,70.03
2023-02-26T10:30:00.244Z,69.53
2023-02-26T10:35:18.240Z,72.03
2023-02-26T10:37:52.345Z,71.91
2023-02-26T10:40:43.628Z,70.31
2023-02-26T10:43:29.397Z,68.41
2023-02-26T10:46:15.000Z,70.05
2023-02-26T10:48:50.418Z,70.33
2023-02-26T10:51:19.767Z,70.21
2023-02-26T10:53:57.050Z,68.76
2023-02-26T10:56:32.747Z,69.18
2023-02-26T10:58:59.694Z,67.66
2023-02-26T11:01:28.801Z,68.74
2023-02-26T11:04:00.679Z,68.66
2023-02-26T11:06:33.519Z,69.10
2023-02-26T11:09:01.732Z,67.72
2023-02-26T11:11:46.770Z,67.07
2023-02-26T11:14:15.437Z,67.47
2023-02-26T11:16:55.685Z,66.24
2023-02-26T11:19:28.975Z,66.72
2023-02-26T11:21:56.850Z,67.42
2023-02-26T11:24:34.343Z,67.16
2023-02-26T11:27:04.153Z,68.47
2023-02-26T11:29:43.053Z,66.78
2023-02-26T11:32:22.769Z,69.64
2023-02-26T11:34:51.504Z,68.90
2023-02-26T11:37:24.451Z,67.90
2023-02-26T11:39:58.663Z,67.78
2023-02-26T11:42:27.540Z,68.22
2023-02-26T11:44:54.953Z,67.94
2023-02-26T11:47:26.208Z,69.54
2023-02-26T11:49:55.408Z,69.52
2023-02-26T11:52:29.204Z,68.51
2023-02-26T11:55:02.512Z,66.14
2023-02-26T11:57:31.428Z,65.88
2023-02-26T12:00:00.866Z,66.26
2023-02-26T12:02:35.100Z,64.37
2023-02-26T12:05:05.927Z,64.64
2023-02-26T12:07:32.794Z,64.28
2023-02-26T12:09:59.470Z,66.25
2023-02-26T12:12:52.535Z,62.84
2023-02-26T12:15:59.324Z,64.34
2023-02-26T12:18:46.607Z,60.99
2023-02-26T12:21:26.319Z,61.41
2023-02-26T12:24:25.016Z,61.52
2023-02-26T12:26:51.537Z,62.77
2023-02-26T12:29:33.050Z,62.03
2023-02-26T12:32:14.519Z,63.37
2023-02-26T12:34:57.845Z,63.21
2023-02-26T12:37:39.642Z,63.74
2023-02-26T12:40:14.633Z,63.03
2023-02-26T12:43:04.151Z,61.30
2023-02-26T12:45:47.362Z,63.67
2023-02-26T12:48:41.846Z,62.26
2023-02-26T12:51:08.328Z,62.71
2023-02-26T12:53:59.885Z,62.26
2023-02-26T12:56:29.296Z,63.01
2023-02-26T12:59:20.881Z,61.96
2023-02-26T13:02:01.133Z,65.12
2023-02-26T13:04:59.400Z,66.29
2023-02-26T13:08:07.059Z,66.79
2023-02-26T13:11:12.220Z,65.03
2023-02-26T13:13:44.810Z,65.23
2023-02-26T13:16:30.376Z,65.30
2023-02-26T13:19:13.400Z,62.71
2023-02-26T13:21:45.547Z,62.63
2023-02-26T13:24:21.837Z,61.15
2023-02-26T13:26:50.138Z,64.21
2023-02-26T13:29:40.292Z,64.56
2023-02-26T13:32:15.737Z,66.88
2023-02-26T13:34:45.486Z,68.90
2023-02-26T13:37:28.104Z,71.81
2023-02-26T13:40:00.338Z,71.11
2023-02-26T13:42:41.329Z,73.76
2023-02-26T13:45:25.914Z,74.01
2023-02-26T13:48:29.353Z,70.24
2023-02-26T13:51:03.832Z,69.23
2023-02-26T13:53:40.660Z,68.91
2023-02-26T13:56:07.548Z,70.05
2023-02-26T13:58:39.406Z,69.61
2023-02-26T14:01:16.019Z,69.05
2023-02-26T14:04:25.020Z,69.60
2023-02-26T14:06:51.824Z,69.52
2023-02-26T14:09:48.528Z,68.45
2023-02-26T14:12:15.993Z,70.48
2023-02-26T14:15:10.877Z,68.38
2023-02-26T14:18:28.798Z,67.65
2023-02-26T14:32:50.182Z,67.88
2023-02-26T14:36:28.312Z,61.23
2023-02-26T14:50:00.995Z,64.73
2023-02-26T14:53:16.653Z,65.69
2023-02-26T14:56:20.794Z,64.77
2023-02-26T14:59:28.641Z,66.73
2023-02-26T15:02:43.790Z,67.00
2023-02-26T15:05:40.840Z,69.00
2023-02-26T15:08:22.993Z,70.34
2023-02-26T15:11:08.109Z,68.88
2023-02-26T15:13:40.369Z,69.85
2023-02-26T15:16:23.699Z,68.87
2023-02-26T15:19:27.739Z,68.08
2023-02-26T15:22:16.034Z,66.55
2023-02-26T15:24:42.747Z,65.37
2023-02-26T15:27:16.417Z,66.46
2023-02-26T15:29:43.885Z,69.04
2023-02-26T15:32:26.180Z,69.41
2023-02-26T15:35:04.710Z,68.87
2023-02-26T15:37:33.851Z,69.32
2023-02-26T15:40:04.919Z,69.54
2023-02-26T15:42:37.523Z,70.92
2023-02-26T15:45:12.511Z,70.25
2023-02-26T15:47:39.599Z,72.82
2023-02-26T15:50:08.113Z,74.88
2023-02-26T15:52:36.196Z,78.69
2023-02-26T15:55:08.770Z,76.08
2023-02-26T15:57:36.862Z,74.01
2023-02-26T16:00:10.517Z,73.62
2023-02-26T16:02:37.635Z,72.16
2023-02-26T16:05:04.978Z,72.28
2023-02-26T16:07:31.814Z,71.69
2023-02-26T16:10:07.090Z,70.71
2023-02-26T16:12:40.606Z,70.48
2023-02-26T16:15:17.606Z,73.21
2023-02-26T16:17:48.080Z,75.35
2023-02-26T16:20:19.111Z,75.09
2023-02-26T16:22:58.477Z,75.43
2023-02-26T16:25:39.795Z,74.66
2023-02-26T16:28:26.804Z,74.71
2023-02-26T16:30:56.154Z,74.72
2023-02-26T16:33:25.183Z,76.98
2023-02-26T16:36:03.387Z,76.28
2023-02-26T16:38:51.466Z,76.00
2023-02-26T16:41:23.789Z,77.04
2023-02-26T16:43:57.579Z,78.50
2023-02-26T16:46:35.181Z,80.93
2023-02-26T16:49:06.325Z,81.91
2023-02-26T16:51:37.436Z,82.58
2023-02-26T16:54:27.600Z,83.55
2023-02-26T16:57:16.176Z,85.22
2023-02-26T16:59:52.193Z,85.74
2023-02-26T17:02:29.445Z,86.23
2023-02-26T17:05:01.961Z,86.04
2023-02-26T17:08:08.842Z,87.04
2023-02-26T17:10:49.933Z,87.47
2023-02-26T17:13:19.604Z,88.98
2023-02-26T17:15:47.165Z,89.45
2023-02-26T17:18:14.103Z,90.66
2023-02-26T17:20:41.106Z,90.08
2023-02-26T17:23:11.557Z,89.06
2023-02-26T17:25:42.226Z,89.69
2023-02-26T17:28:13.428Z,91.58
2023-02-26T17:30:41.630Z,90.52
2023-02-26T17:33:16.597Z,91.75
2023-02-26T17:35:44.333Z,91.38
2023-02-26T17:38:13.275Z,93.14
2023-02-26T17:40:41.380Z,95.13
2023-02-26T17:43:11.315Z,99.38
2023-02-26T17:45:40.427Z,100.00
2023-02-26T17:48:08.043Z,100.00
2023-02-26T17:50:47.344Z,100.00
2023-02-26T17:53:15.877Z,100.00
2023-02-26T17:55:43.132Z,100.00
2023-02-26T17:58:19.838Z,100.00
2023-02-26T18:00:49.819Z,100.00
2023-02-26T18:03:17.310Z,100.00
2023-02-26T18:05:43.900Z,100.00
2023-02-26T18:08:23.651Z,100.00
2023-02-26T18:10:52.172Z,100.00
2023-02-26T18:13:19.229Z,100.00
2023-02-26T18:15:46.199Z,100.00
2023-02-26T18:18:13.803Z,100.00
2023-02-26T18:20:47.592Z,100.00
2023-02-26T18:23:17.252Z,100.00
2023-02-26T18:25:46.591Z,100.00
2023-02-26T18:28:25.199Z,100.00
2023-02-26T18:30:52.718Z,100.00
2023-02-26T18:33:20.483Z,100.00
2023-02-26T18:35:51.613Z,100.00
2023-02-26T18:38:20.524Z,100.00
2023-02-26T18:40:48.280Z,100.00
2023-02-26T18:43:15.277Z,100.00
2023-02-26T18:45:44.440Z,100.00
2023-02-26T18:48:13.871Z,100.00
2023-02-26T18:50:40.518Z,100.00
2023-02-26T18:53:07.102Z,100.00
2023-02-26T18:55:35.278Z,100.00
2023-02-26T18:58:04.485Z,100.00
2023-02-26T19:00:31.087Z,100.00
2023-02-26T19:02:57.709Z,100.00
2023-02-26T19:05:26.518Z,100.00
2023-02-26T19:07:54.608Z,100.00
2023-02-26T19:10:21.643Z,100.00
2023-02-26T19:12:50.338Z,100.00
2023-02-26T19:15:17.351Z,100.00
2023-02-26T19:17:43.955Z,100.00
2023-02-26T19:20:11.472Z,100.00
2023-02-26T19:22:38.118Z,100.00
2023-02-26T19:25:05.433Z,100.00
2023-02-26T19:27:32.517Z,100.00
2023-02-26T19:29:59.268Z,100.00
2023-02-26T19:32:26.639Z,100.00
2023-02-26T19:34:53.345Z,100.00
2023-02-26T19:37:19.923Z,100.00
2023-02-26T19:39:46.532Z,100.00
2023-02-26T19:42:13.221Z,100.00
2023-02-26T19:44:39.799Z,100.00
2023-02-26T19:47:06.833Z,100.00
2023-02-26T19:49:33.705Z,100.00
2023-02-26T19:52:00.317Z,100.00
2023-02-26T19:54:27.004Z,100.00
2023-02-26T19:56:53.592Z,100.00
2023-02-26T19:59:20.201Z,100.00
2023-02-26T20:01:49.615Z,100.00
2023-02-26T20:04:17.439Z,100.00
2023-02-26T20:06:45.062Z,100.00
2023-02-26T20:09:12.202Z,100.00
2023-02-26T20:11:39.692Z,100.00
2023-02-26T20:14:06.701Z,100.00
2023-02-26T20:16:33.331Z,100.00
2023-02-26T20:19:00.266Z,100.00
2023-02-26T20:21:27.437Z,100.00
2023-02-26T20:23:54.475Z,100.00
2023-02-26T20:26:21.224Z,100.00
2023-02-26T20:28:48.294Z,100.00
2023-02-26T20:31:15.307Z,100.00
2023-02-26T20:33:42.151Z,100.00
2023-02-26T20:36:10.126Z,100.00
2023-02-26T20:38:37.533Z,100.00
2023-02-26T20:41:05.080Z,100.00
2023-02-26T20:43:32.383Z,100.00
2023-02-26T20:45:58.927Z,100.00
2023-02-26T20:48:26.545Z,100.00
2023-02-26T20:51:01.901Z,100.00
2023-02-26T20:53:29.248Z,100.00
2023-02-26T20:55:56.399Z,100.00
2023-02-26T20:58:24.289Z,100.00
2023-02-26T21:00:52.050Z,100.00
2023-02-26T21:03:18.647Z,100.00
2023-02-26T21:05:46.922Z,100.00
2023-02-26T21:08:14.045Z,100.00
2023-02-26T21:10:41.305Z,100.00
2023-02-26T21:13:10.593Z,100.00
2023-02-26T21:15:37.127Z,100.00
2023-02-26T21:18:03.811Z,100.00
2023-02-26T21:20:30.438Z,100.00
2023-02-26T21:22:57.007Z,100.00
2023-02-26T21:25:23.579Z,100.00
2023-02-26T21:27:50.253Z,100.00
2023-02-26T21:30:17.187Z,100.00
2023-02-26T21:32:44.080Z,100.00
2023-02-26T21:35:16.730Z,100.00
2023-02-26T21:37:46.747Z,100.00
2023-02-26T21:40:15.151Z,100.00
2023-02-26T21:42:42.325Z,100.00
2023-02-26T21:45:09.634Z,100.00
2023-02-26T21:47:36.199Z,100.00
2023-02-26T21:50:03.025Z,100.00
2023-02-26T21:52:29.780Z,100.00
2023-02-26T21:54:59.139Z,100.00
2023-02-26T21:57:26.282Z,100.00
2023-02-26T21:59:53.277Z,100.00
2023-02-26T22:02:19.978Z,100.00
2023-02-26T22:04:46.608Z,100.00
2023-02-26T22:07:13.193Z,100.00
2023-02-26T22:09:39.701Z,100.00
2023-02-26T22:12:06.597Z,100.00
2023-02-26T22:14:33.172Z,100.00
2023-02-26T22:16:59.700Z,100.00
2023-02-26T22:19:26.283Z,100.00
2023-02-26T22:21:52.834Z,100.00
2023-02-26T22:24:19.326Z,100.00
2023-02-26T22:26:48.445Z,100.00
2023-02-26T22:29:16.793Z,100.00
2023-02-26T22:31:44.447Z,100.00
2023-02-26T22:34:12.272Z,100.00
2023-02-26T22:36:38.882Z,100.00
2023-02-26T22:39:06.099Z,100.00
2023-02-26T22:41:34.274Z,100.00
2023-02-26T22:44:00.919Z,100.00
2023-02-26T22:46:28.479Z,100.00
2023-02-26T22:48:56.121Z,100.00
2023-02-26T22:51:23.057Z,100.00
2023-02-26T22:53:50.308Z,100.00
2023-02-26T22:56:17.085Z,100.00
2023-02-26T22:58:43.693Z,100.00
2023-02-26T23:01:10.308Z,100.00
2023-02-26T23:03:36.894Z,100.00
2023-02-26T23:06:03.707Z,100.00
2023-02-26T23:08:30.298Z,100.00
2023-02-26T23:10:58.218Z,100.00
2023-02-26T23:13:25.797Z,100.00
2023-02-26T23:15:52.386Z,100.00
2023-02-26T23:18:19.332Z,100.00
2023-02-26T23:20:47.412Z,100.00
2023-02-26T23:23:14.330Z,100.00
2023-02-26T23:25:42.256Z,100.00
2023-02-26T23:28:08.945Z,100.00
2023-02-26T23:30:35.897Z,100.00
2023-02-26T23:33:02.669Z,100.00
2023-02-26T23:35:29.218Z,100.00
2023-02-26T23:37:55.741Z,100.00
2023-02-26T23:40:22.279Z,100.00
2023-02-26T23:42:49.469Z,100.00
2023-02-26T23:45:16.046Z,100.00
2023-02-26T23:47:42.766Z,100.00
2023-02-26T23:50:10.878Z,100.00
2023-02-26T23:52:37.539Z,100.00
2023-02-26T23:55:05.341Z,100.00
2023-02-26T23:57:32.120Z,100.00
2023-02-26T23:59:58.753Z,100.00
